Time;durP1;ratioP1;P1;durP2;ratioP2;P2;SDS_P1;SDS_P2;PMS_P1;PMS_P2;Temp;Humidity;BMP_temperature;BMP_pressure;BME280_temperature;BME280_humidity;BME280_pressure;Samples;Min_cycle;Max_cycle;Signal;HPM_P1;HPM_P2
2024/01/03 00:00:00;;;;;;;164.30;105.32;;;;;;;;;;5032861;28;20017;-66
2024/01/03 00:02:26;;;;;;;155.43;102.80;;;;;;;;;;5032824;28;20022;-67
2024/01/03 00:04:52;;;;;;;140.32;95.55;;;;;;;;;;5031563;28;20105;-66
2024/01/03 00:07:18;;;;;;;136.68;92.15;;;;;;;;;;5033053;28;20426;-66
2024/01/03 00:09:44;;;;;;;129.88;89.57;;;;;;;;;;5032739;28;20032;-67
2024/01/03 00:12:12;;;;;;;136.30;88.30;;;;;;;;;;5032592;28;20029;-66
2024/01/03 00:14:38;;;;;;;126.03;84.95;;;;;;;;;;5032656;28;20097;-67
2024/01/03 00:17:05;;;;;;;123.75;82.70;;;;;;;;;;5032761;28;20029;-68
2024/01/03 00:19:33;;;;;;;120.22;79.78;;;;;;;;;;5032597;28;20024;-67
2024/01/03 00:22:00;;;;;;;119.00;80.28;;;;;;;;;;5032464;28;20486;-69
2024/01/03 00:24:26;;;;;;;126.30;80.00;;;;;;;;;;5032620;28;20024;-68
2024/01/03 00:26:53;;;;;;;121.22;77.15;;;;;;;;;;5032531;28;20017;-68
2024/01/03 00:29:39;;;;;;;120.50;75.30;;;;;;;;;;5032459;28;20048;-69
2024/01/03 00:32:06;;;;;;;116.03;76.25;;;;;;;;;;5032155;28;20053;-68
2024/01/03 00:34:35;;;;;;;111.20;75.03;;;;;;;;;;5031218;28;20017;-68
2024/01/03 00:37:01;;;;;;;108.03;68.68;;;;;;;;;;5032393;28;20026;-68
2024/01/03 00:39:28;;;;;;;113.68;70.63;;;;;;;;;;5032205;28;20379;-67
2024/01/03 00:41:54;;;;;;;105.32;68.20;;;;;;;;;;5031877;28;20475;-68
2024/01/03 00:44:20;;;;;;;103.50;69.35;;;;;;;;;;5032196;28;20017;-68
2024/01/03 00:46:47;;;;;;;108.43;68.57;;;;;;;;;;5032134;28;20410;-68
2024/01/03 00:49:13;;;;;;;94.68;60.63;;;;;;;;;;5032042;28;20080;-68
2024/01/03 00:51:39;;;;;;;97.55;62.47;;;;;;;;;;5030584;28;20029;-68
2024/01/03 00:54:06;;;;;;;96.07;61.05;;;;;;;;;;5032039;28;20033;-67
2024/01/03 00:56:32;;;;;;;88.10;59.70;;;;;;;;;;5032000;28;20140;-68
2024/01/03 00:58:58;;;;;;;89.95;59.45;;;;;;;;;;5031769;28;20030;-70
2024/01/03 01:01:24;;;;;;;89.43;57.58;;;;;;;;;;5031718;28;20487;-70
2024/01/03 01:03:50;;;;;;;81.88;54.80;;;;;;;;;;5031811;28;20033;-70
2024/01/03 01:06:16;;;;;;;83.70;52.97;;;;;;;;;;5031805;28;20436;-70
2024/01/03 01:08:42;;;;;;;92.47;53.30;;;;;;;;;;5031848;28;20064;-69
2024/01/03 01:11:08;;;;;;;80.72;52.88;;;;;;;;;;5056198;22;21647;-67
2024/01/03 01:13:34;;;;;;;78.03;50.38;;;;;;;;;;5028425;28;20064;-67
2024/01/03 01:16:00;;;;;;;72.80;48.83;;;;;;;;;;5029577;28;20108;-68
2024/01/03 01:18:26;;;;;;;75.70;47.92;;;;;;;;;;5030269;28;20021;-67
2024/01/03 01:20:52;;;;;;;76.57;47.95;;;;;;;;;;5029900;28;20037;-66
2024/01/03 01:23:18;;;;;;;72.32;46.13;;;;;;;;;;5010240;28;20068;-68
2024/01/03 01:25:44;;;;;;;76.88;44.88;;;;;;;;;;5010296;28;20056;-68
2024/01/03 01:28:09;;;;;;;64.82;43.08;;;;;;;;;;5010078;28;20032;-68
2024/01/03 01:30:35;;;;;;;67.55;42.90;;;;;;;;;;5009948;28;20018;-68
2024/01/03 01:33:01;;;;;;;70.50;42.22;;;;;;;;;;5010163;28;20049;-68
2024/01/03 01:35:27;;;;;;;59.58;40.70;;;;;;;;;;5010079;28;20034;-68
2024/01/03 01:37:53;;;;;;;61.38;39.58;;;;;;;;;;5010142;28;20487;-68
2024/01/03 01:40:19;;;;;;;58.20;38.08;;;;;;;;;;5009905;28;20107;-68
2024/01/03 01:42:45;;;;;;;62.17;38.00;;;;;;;;;;5009775;28;20026;-68
2024/01/03 01:45:11;;;;;;;54.80;36.80;;;;;;;;;;5010272;28;20117;-68
2024/01/03 01:47:40;;;;;;;56.20;36.25;;;;;;;;;;5009723;28;20432;-68
2024/01/03 01:50:08;;;;;;;55.28;36.17;;;;;;;;;;5009675;28;20018;-67
2024/01/03 01:52:34;;;;;;;58.95;34.85;;;;;;;;;;5009843;28;20026;-67
2024/01/03 01:55:00;;;;;;;54.20;35.03;;;;;;;;;;5009712;28;20057;-67
2024/01/03 01:57:27;;;;;;;54.72;33.55;;;;;;;;;;5010130;28;20049;-67
2024/01/03 01:59:53;;;;;;;48.40;32.72;;;;;;;;;;5009389;28;20101;-67
2024/01/03 02:02:19;;;;;;;48.22;31.70;;;;;;;;;;5009759;28;20113;-67
2024/01/03 02:04:45;;;;;;;49.65;30.33;;;;;;;;;;5008485;28;20022;-67
2024/01/03 02:07:12;;;;;;;49.97;32.40;;;;;;;;;;5009482;28;20080;-69
2024/01/03 02:09:38;;;;;;;55.55;30.48;;;;;;;;;;5009830;28;20437;-68
2024/01/03 02:12:04;;;;;;;42.88;29.48;;;;;;;;;;5012520;28;20065;-68
2024/01/03 02:14:30;;;;;;;45.05;29.02;;;;;;;;;;5013605;28;20018;-67
2024/01/03 02:16:56;;;;;;;47.13;29.80;;;;;;;;;;5013914;28;20151;-70
2024/01/03 02:19:22;;;;;;;43.60;29.17;;;;;;;;;;5013712;28;20037;-70
2024/01/03 02:21:48;;;;;;;42.17;27.02;;;;;;;;;;5013241;28;20117;-69
2024/01/03 02:24:14;;;;;;;42.30;28.20;;;;;;;;;;5013736;28;20026;-67
2024/01/03 02:26:40;;;;;;;40.03;26.35;;;;;;;;;;5013565;28;20083;-69
2024/01/03 02:29:06;;;;;;;41.03;28.00;;;;;;;;;;5013643;28;20037;-67
2024/01/03 02:31:32;;;;;;;39.88;26.02;;;;;;;;;;5013151;28;20022;-68
2024/01/03 02:33:58;;;;;;;39.47;24.35;;;;;;;;;;5013250;28;20025;-68
2024/01/03 02:36:24;;;;;;;40.25;25.70;;;;;;;;;;5013172;28;20030;-68
2024/01/03 02:38:51;;;;;;;51.00;26.02;;;;;;;;;;5013265;28;20026;-69
2024/01/03 02:41:17;;;;;;;56.55;24.98;;;;;;;;;;5012976;28;20032;-69
2024/01/03 02:43:43;;;;;;;40.53;24.20;;;;;;;;;;5013056;28;20022;-70
2024/01/03 02:46:09;;;;;;;38.80;23.13;;;;;;;;;;5013067;28;20084;-69
2024/01/03 02:48:39;;;;;;;50.28;23.42;;;;;;;;;;5012959;28;20025;-69
2024/01/03 02:51:05;;;;;;;41.28;21.63;;;;;;;;;;5012425;28;20125;-69
2024/01/03 02:53:31;;;;;;;33.90;21.02;;;;;;;;;;5012799;28;20085;-69
2024/01/03 02:55:58;;;;;;;34.00;20.77;;;;;;;;;;5012755;28;20060;-69
2024/01/03 02:58:24;;;;;;;30.52;20.15;;;;;;;;;;5013397;28;20084;-70
2024/01/03 03:00:50;;;;;;;30.27;19.73;;;;;;;;;;5012992;28;20442;-69
2024/01/03 03:03:16;;;;;;;43.20;19.95;;;;;;;;;;5012735;28;20068;-70
2024/01/03 03:05:42;;;;;;;30.85;19.63;;;;;;;;;;5013024;28;20022;-70
2024/01/03 03:08:08;;;;;;;33.22;20.08;;;;;;;;;;5013402;28;20018;-70
2024/01/03 03:10:34;;;;;;;27.73;18.58;;;;;;;;;;5012807;28;20036;-70
2024/01/03 03:13:00;;;;;;;29.25;18.67;;;;;;;;;;5012485;28;20505;-70
2024/01/03 03:15:26;;;;;;;28.80;18.50;;;;;;;;;;5012992;28;20026;-70
2024/01/03 03:17:52;;;;;;;30.55;19.73;;;;;;;;;;5021877;28;20030;-70
2024/01/03 03:20:18;;;;;;;29.23;17.52;;;;;;;;;;5033299;28;20025;-69
2024/01/03 03:22:44;;;;;;;29.30;17.10;;;;;;;;;;5033404;28;20029;-68
2024/01/03 03:25:10;;;;;;;27.85;17.83;;;;;;;;;;5033780;28;20025;-68
2024/01/03 03:27:36;;;;;;;28.60;16.73;;;;;;;;;;5033791;28;20022;-69
2024/01/03 03:30:02;;;;;;;29.17;17.55;;;;;;;;;;5033326;28;20091;-68
2024/01/03 03:32:28;;;;;;;26.27;16.52;;;;;;;;;;5033607;28;20022;-68
2024/01/03 03:34:54;;;;;;;24.67;16.30;;;;;;;;;;5035043;28;20033;-69
2024/01/03 03:37:20;;;;;;;24.80;15.68;;;;;;;;;;5034079;28;20083;-71
2024/01/03 03:39:46;;;;;;;24.05;15.80;;;;;;;;;;5033546;28;20036;-70
2024/01/03 03:42:14;;;;;;;22.67;15.00;;;;;;;;;;5033177;28;20029;-70
2024/01/03 03:44:40;;;;;;;26.10;15.30;;;;;;;;;;5033530;28;20135;-70
2024/01/03 03:47:07;;;;;;;23.50;14.60;;;;;;;;;;5033328;28;20018;-70
2024/01/03 03:49:33;;;;;;;21.55;14.15;;;;;;;;;;5033298;28;20410;-69
2024/01/03 03:51:59;;;;;;;23.08;14.27;;;;;;;;;;5033194;28;20071;-69
2024/01/03 03:54:25;;;;;;;23.98;12.85;;;;;;;;;;5033289;28;20053;-69
2024/01/03 03:56:51;;;;;;;20.10;13.60;;;;;;;;;;5033338;28;20100;-70
2024/01/03 03:59:17;;;;;;;20.35;13.02;;;;;;;;;;5033076;28;20100;-69
2024/01/03 04:01:52;;;;;;;19.10;12.45;;;;;;;;;;5032773;28;20079;-68
2024/01/03 04:04:18;;;;;;;18.17;12.00;;;;;;;;;;5033168;28;20018;-68
2024/01/03 04:06:44;;;;;;;19.27;11.35;;;;;;;;;;5033190;28;20075;-68
2024/01/03 04:09:10;;;;;;;19.70;12.00;;;;;;;;;;5033185;28;20028;-68
2024/01/03 04:11:40;;;;;;;16.50;11.45;;;;;;;;;;5032556;28;20494;-69
2024/01/03 04:14:07;;;;;;;17.70;11.75;;;;;;;;;;5032881;28;20033;-70
2024/01/03 04:16:33;;;;;;;15.05;10.85;;;;;;;;;;5032739;28;20030;-69
2024/01/03 04:18:59;;;;;;;22.55;12.75;;;;;;;;;;5032983;28;20022;-70
2024/01/03 04:21:25;;;;;;;14.38;9.75;;;;;;;;;;5032395;28;20029;-69
2024/01/03 04:23:51;;;;;;;15.93;10.95;;;;;;;;;;5033033;28;20114;-67
2024/01/03 04:26:17;;;;;;;18.95;10.82;;;;;;;;;;5032616;28;20047;-68
2024/01/03 04:28:43;;;;;;;17.30;10.52;;;;;;;;;;5032577;28;20608;-67
2024/01/03 04:31:09;;;;;;;20.90;11.07;;;;;;;;;;5030822;28;20056;-68
2024/01/03 04:33:35;;;;;;;16.88;10.18;;;;;;;;;;5031968;28;20017;-67
2024/01/03 04:36:01;;;;;;;19.13;11.15;;;;;;;;;;5032536;28;20033;-69
2024/01/03 04:38:27;;;;;;;17.95;10.27;;;;;;;;;;5032464;28;20023;-68
2024/01/03 04:40:53;;;;;;;15.63;10.43;;;;;;;;;;5032260;28;20053;-68
2024/01/03 04:43:19;;;;;;;18.65;9.90;;;;;;;;;;5012424;28;20022;-70
2024/01/03 04:45:47;;;;;;;20.05;10.02;;;;;;;;;;5012382;28;20156;-68
2024/01/03 04:48:13;;;;;;;20.92;10.05;;;;;;;;;;5012603;28;20097;-68
2024/01/03 04:50:39;;;;;;;21.75;9.60;;;;;;;;;;5012294;28;20547;-69
2024/01/03 04:53:05;;;;;;;16.75;9.93;;;;;;;;;;5012366;28;20032;-68
2024/01/03 04:55:31;;;;;;;19.42;9.52;;;;;;;;;;5012363;28;20446;-69
2024/01/03 04:57:57;;;;;;;19.35;8.95;;;;;;;;;;5012299;28;20025;-66
2024/01/03 05:00:23;;;;;;;27.75;10.52;;;;;;;;;;5012081;28;20065;-67
2024/01/03 05:02:49;;;;;;;17.40;9.90;;;;;;;;;;5014282;28;20531;-70
2024/01/03 05:05:15;;;;;;;23.10;10.77;;;;;;;;;;5031507;28;20017;-69
2024/01/03 05:07:41;;;;;;;28.27;11.02;;;;;;;;;;5028705;28;20099;-68
2024/01/03 05:10:10;;;;;;;20.65;11.32;;;;;;;;;;5016836;28;20391;-67
2024/01/03 05:12:37;;;;;;;17.27;10.50;;;;;;;;;;5018444;28;20039;-68
2024/01/03 05:15:06;;;;;;;19.95;10.52;;;;;;;;;;5029899;28;20033;-68
2024/01/03 05:17:32;;;;;;;18.73;11.35;;;;;;;;;;5027371;28;20033;-67
2024/01/03 05:19:58;;;;;;;17.48;10.98;;;;;;;;;;5012465;28;20023;-67
2024/01/03 05:22:24;;;;;;;16.05;10.52;;;;;;;;;;5011823;28;20113;-67
2024/01/03 05:24:51;;;;;;;20.27;10.10;;;;;;;;;;5011988;28;20097;-71
2024/01/03 05:27:17;;;;;;;17.30;11.65;;;;;;;;;;5011647;28;20025;-67
2024/01/03 05:29:43;;;;;;;18.77;11.40;;;;;;;;;;5011721;28;20025;-67
2024/01/03 05:32:09;;;;;;;22.33;11.63;;;;;;;;;;5011576;28;20033;-67
2024/01/03 05:34:35;;;;;;;19.98;10.55;;;;;;;;;;5011710;28;20101;-67
2024/01/03 05:37:01;;;;;;;22.23;11.30;;;;;;;;;;5011533;28;20083;-67
2024/01/03 05:39:27;;;;;;;19.52;12.32;;;;;;;;;;5011373;28;20018;-67
2024/01/03 05:41:53;;;;;;;22.90;10.93;;;;;;;;;;5011340;28;20033;-66
2024/01/03 05:44:19;;;;;;;19.10;10.73;;;;;;;;;;5027215;28;20083;-66
2024/01/03 05:46:46;;;;;;;18.33;10.82;;;;;;;;;;5020916;28;20079;-66
2024/01/03 05:49:12;;;;;;;18.67;10.68;;;;;;;;;;5011427;28;20583;-67
2024/01/03 05:51:38;;;;;;;19.00;12.23;;;;;;;;;;5011403;28;20030;-71
2024/01/03 05:54:04;;;;;;;21.88;12.98;;;;;;;;;;5013030;28;20032;-71
2024/01/03 05:56:30;;;;;;;21.63;13.40;;;;;;;;;;5024652;28;20446;-70
2024/01/03 05:58:56;;;;;;;23.95;14.63;;;;;;;;;;5029792;28;20056;-72
2024/01/03 06:01:22;;;;;;;25.58;14.60;;;;;;;;;;5025593;28;20035;-71
2024/01/03 06:03:49;;;;;;;24.40;14.68;;;;;;;;;;5032281;28;20038;-71
2024/01/03 06:06:16;;;;;;;22.50;15.45;;;;;;;;;;5032133;28;20028;-67
2024/01/03 06:08:42;;;;;;;34.53;21.17;;;;;;;;;;5031810;28;20029;-67
2024/01/03 06:11:12;;;;;;;36.78;23.65;;;;;;;;;;5031441;28;20025;-68
2024/01/03 06:13:38;;;;;;;30.80;22.15;;;;;;;;;;5032364;28;20038;-68
2024/01/03 06:16:05;;;;;;;36.38;20.55;;;;;;;;;;5031035;28;20513;-68
2024/01/03 06:18:31;;;;;;;30.23;19.52;;;;;;;;;;5026020;28;20061;-68
2024/01/03 06:20:57;;;;;;;28.77;19.83;;;;;;;;;;5030547;28;20100;-68
2024/01/03 06:23:24;;;;;;;29.73;20.20;;;;;;;;;;5017354;28;20079;-68
2024/01/03 06:25:50;;;;;;;32.00;19.63;;;;;;;;;;5011423;28;20056;-69
2024/01/03 06:28:16;;;;;;;30.13;20.17;;;;;;;;;;5011107;28;20029;-68
2024/01/03 06:30:43;;;;;;;31.55;20.48;;;;;;;;;;5010950;28;20033;-68
2024/01/03 06:33:09;;;;;;;30.25;18.80;;;;;;;;;;5009628;28;20026;-69
2024/01/03 06:35:35;;;;;;;29.92;19.58;;;;;;;;;;5011021;28;20029;-69
2024/01/03 06:38:03;;;;;;;26.15;17.25;;;;;;;;;;5010753;28;20030;-68
2024/01/03 06:40:29;;;;;;;24.00;16.48;;;;;;;;;;5009487;28;20057;-70
2024/01/03 06:42:55;;;;;;;27.02;17.33;;;;;;;;;;5010860;28;20057;-69
2024/01/03 06:45:21;;;;;;;27.02;16.38;;;;;;;;;;5010826;28;20097;-69
2024/01/03 06:47:47;;;;;;;26.35;16.23;;;;;;;;;;5026436;28;20105;-69
2024/01/03 06:50:13;;;;;;;26.35;15.93;;;;;;;;;;5028955;28;20026;-69
2024/01/03 06:52:40;;;;;;;27.77;15.85;;;;;;;;;;5026573;28;20026;-70
2024/01/03 06:55:06;;;;;;;26.25;15.93;;;;;;;;;;5030405;28;20395;-68
2024/01/03 06:57:32;;;;;;;26.58;15.48;;;;;;;;;;5032471;28;20029;-68
2024/01/03 06:59:58;;;;;;;22.80;15.02;;;;;;;;;;5033949;28;20036;-68
2024/01/03 07:02:24;;;;;;;22.35;14.82;;;;;;;;;;5034112;28;20044;-67
2024/01/03 07:04:50;;;;;;;22.98;14.75;;;;;;;;;;5032821;28;20057;-67
2024/01/03 07:07:17;;;;;;;23.48;15.73;;;;;;;;;;5033771;28;20045;-67
2024/01/03 07:09:43;;;;;;;23.77;14.20;;;;;;;;;;5033768;28;20093;-67
2024/01/03 07:12:09;;;;;;;25.92;14.73;;;;;;;;;;5077514;22;20392;-67
2024/01/03 07:14:35;;;;;;;28.55;14.95;;;;;;;;;;5030474;28;20030;-68
2024/01/03 07:17:01;;;;;;;23.20;14.38;;;;;;;;;;5032112;28;20071;-69
2024/01/03 07:19:27;;;;;;;22.63;14.20;;;;;;;;;;5032094;28;20018;-70
2024/01/03 07:21:53;;;;;;;19.63;13.25;;;;;;;;;;5032223;28;20101;-70
2024/01/03 07:24:19;;;;;;;22.95;14.88;;;;;;;;;;5032084;28;20449;-70
2024/01/03 07:26:45;;;;;;;30.48;13.98;;;;;;;;;;5032345;28;20029;-69
2024/01/03 07:29:11;;;;;;;19.45;13.77;;;;;;;;;;5028099;28;20108;-69
2024/01/03 07:31:37;;;;;;;22.60;13.63;;;;;;;;;;5031147;28;20025;-70
2024/01/03 07:34:03;;;;;;;21.88;13.73;;;;;;;;;;5031887;28;20029;-69
2024/01/03 07:36:29;;;;;;;18.88;12.77;;;;;;;;;;5031887;28;20018;-69
2024/01/03 07:38:58;;;;;;;19.63;13.48;;;;;;;;;;5031430;28;20401;-69
2024/01/03 07:41:24;;;;;;;21.30;13.38;;;;;;;;;;5031462;28;20470;-71
2024/01/03 07:43:50;;;;;;;29.73;15.00;;;;;;;;;;5031633;28;20112;-68
2024/01/03 07:46:16;;;;;;;26.75;14.57;;;;;;;;;;5030885;28;20379;-68
2024/01/03 07:48:42;;;;;;;23.85;14.85;;;;;;;;;;5031532;28;20018;-68
2024/01/03 07:51:08;;;;;;;21.92;13.18;;;;;;;;;;5030986;28;20095;-68
2024/01/03 07:53:37;;;;;;;22.27;12.77;;;;;;;;;;5031290;28;20022;-68
2024/01/03 07:56:03;;;;;;;23.67;14.35;;;;;;;;;;5031313;28;20076;-68
2024/01/03 07:58:29;;;;;;;22.90;14.05;;;;;;;;;;5029835;28;20037;-68
2024/01/03 08:00:55;;;;;;;24.00;14.95;;;;;;;;;;5029495;28;20025;-68
2024/01/03 08:03:21;;;;;;;31.02;14.18;;;;;;;;;;5031288;28;20069;-67
2024/01/03 08:05:48;;;;;;;57.25;15.13;;;;;;;;;;5031045;28;20112;-69
2024/01/03 08:08:13;;;;;;;27.13;7.93;;;;;;;;;;5030001;28;20050;-70
2024/01/03 08:10:39;;;;;;;19.40;5.30;;;;;;;;;;5030794;28;20053;-67
2024/01/03 08:13:05;;;;;;;9.07;3.25;;;;;;;;;;5030855;28;20521;-70
2024/01/03 08:15:32;;;;;;;12.32;4.03;;;;;;;;;;5030990;28;20032;-69
2024/01/03 08:17:57;;;;;;;5.30;1.98;;;;;;;;;;5030786;28;20053;-70
2024/01/03 08:20:24;;;;;;;11.23;3.00;;;;;;;;;;5029025;28;20053;-69
2024/01/03 08:22:51;;;;;;;29.02;9.82;;;;;;;;;;5030678;28;20029;-68
2024/01/03 08:25:17;;;;;;;36.47;11.43;;;;;;;;;;5030683;28;20013;-67
2024/01/03 08:27:43;;;;;;;28.92;10.52;;;;;;;;;;5030773;28;20033;-69
2024/01/03 08:30:09;;;;;;;25.95;10.32;;;;;;;;;;5030565;28;20089;-69
2024/01/03 08:32:40;;;;;;;24.95;10.27;;;;;;;;;;5030684;28;20348;-68
2024/01/03 08:35:06;;;;;;;26.45;10.35;;;;;;;;;;5030496;28;20041;-67
2024/01/03 08:37:32;;;;;;;25.08;9.75;;;;;;;;;;5030983;28;20029;-69
2024/01/03 08:39:59;;;;;;;25.80;8.82;;;;;;;;;;5030194;28;20463;-66
2024/01/03 08:42:25;;;;;;;26.30;9.50;;;;;;;;;;5030508;28;20072;-69
2024/01/03 08:44:51;;;;;;;25.38;9.45;;;;;;;;;;5030332;28;20022;-68
2024/01/03 08:47:17;;;;;;;18.15;9.73;;;;;;;;;;5029650;28;20025;-69
2024/01/03 08:49:44;;;;;;;22.45;8.80;;;;;;;;;;5021552;28;20022;-70
2024/01/03 08:52:10;;;;;;;35.55;9.20;;;;;;;;;;5008888;28;20077;-68
2024/01/03 08:54:36;;;;;;;24.40;8.93;;;;;;;;;;5009100;28;20057;-70
2024/01/03 08:57:02;;;;;;;19.23;9.05;;;;;;;;;;5007790;28;20065;-69
2024/01/03 08:59:28;;;;;;;28.33;8.70;;;;;;;;;;5007006;28;20026;-69
2024/01/03 09:01:57;;;;;;;19.30;8.40;;;;;;;;;;5007056;28;20057;-70
2024/01/03 09:04:23;;;;;;;29.13;9.02;;;;;;;;;;5007531;28;20090;-70
2024/01/03 09:06:52;;;;;;;18.75;8.63;;;;;;;;;;5009222;28;20053;-69
2024/01/03 09:09:18;;;;;;;25.80;8.15;;;;;;;;;;5009427;28;20026;-70
2024/01/03 09:11:44;;;;;;;28.88;9.00;;;;;;;;;;5008873;28;20145;-70
2024/01/03 09:14:12;;;;;;;24.70;7.57;;;;;;;;;;5010626;28;20034;-70
2024/01/03 09:16:39;;;;;;;23.98;7.85;;;;;;;;;;5008993;28;20208;-70
2024/01/03 09:19:05;;;;;;;20.40;7.13;;;;;;;;;;5010494;28;20045;-69
2024/01/03 09:21:31;;;;;;;18.17;7.05;;;;;;;;;;5009722;28;20431;-69
2024/01/03 09:23:57;;;;;;;21.95;6.60;;;;;;;;;;5009871;28;20145;-70
2024/01/03 09:26:24;;;;;;;18.80;6.05;;;;;;;;;;5010277;28;20199;-69
2024/01/03 09:28:50;;;;;;;15.50;6.53;;;;;;;;;;5009982;28;20029;-70
2024/01/03 09:31:16;;;;;;;34.13;6.05;;;;;;;;;;5009739;28;20422;-70
2024/01/03 09:33:42;;;;;;;12.65;5.70;;;;;;;;;;5009614;28;20032;-70
2024/01/03 09:36:16;;;;;;;18.08;6.63;;;;;;;;;;5010188;28;20022;-70
2024/01/03 09:38:42;;;;;;;22.85;6.10;;;;;;;;;;5010274;28;20538;-69
2024/01/03 09:41:12;;;;;;;18.60;6.30;;;;;;;;;;5009777;28;20018;-69
2024/01/03 09:43:39;;;;;;;29.30;7.25;;;;;;;;;;5009887;28;20022;-69
2024/01/03 09:46:05;;;;;;;13.57;5.03;;;;;;;;;;5010038;28;20057;-68
2024/01/03 09:48:31;;;;;;;18.38;5.68;;;;;;;;;;5009578;28;20022;-69
2024/01/03 09:51:01;;;;;;;12.73;4.50;;;;;;;;;;5009510;28;20049;-72
2024/01/03 09:53:28;;;;;;;19.02;5.75;;;;;;;;;;5022544;28;20057;-71
2024/01/03 09:55:55;;;;;;;22.67;5.18;;;;;;;;;;5029535;28;20021;-71
2024/01/03 09:58:24;;;;;;;12.68;4.80;;;;;;;;;;5029489;28;20414;-71
2024/01/03 10:00:50;;;;;;;15.02;4.90;;;;;;;;;;5029394;28;20363;-70
2024/01/03 10:03:16;;;;;;;12.18;4.32;;;;;;;;;;5029312;28;20459;-72
2024/01/03 10:05:43;;;;;;;10.98;4.45;;;;;;;;;;5029411;28;20022;-72
2024/01/03 10:08:19;;;;;;;14.65;4.60;;;;;;;;;;5029448;28;20025;-72
2024/01/03 10:10:46;;;;;;;17.40;5.05;;;;;;;;;;5028589;28;20144;-73
2024/01/03 10:13:23;;;;;;;16.40;4.93;;;;;;;;;;5027196;28;20110;-71
2024/01/03 10:15:49;;;;;;;15.40;5.22;;;;;;;;;;5027682;28;20055;-72
2024/01/03 10:18:16;;;;;;;16.38;5.05;;;;;;;;;;5025857;28;20529;-71
2024/01/03 10:20:42;;;;;;;18.73;5.53;;;;;;;;;;5025803;28;20140;-71
2024/01/03 10:23:16;;;;;;;19.25;5.53;;;;;;;;;;5027222;28;20025;-71
2024/01/03 10:25:43;;;;;;;13.20;4.75;;;;;;;;;;5027918;28;20044;-72
2024/01/03 10:28:09;;;;;;;8.50;3.72;;;;;;;;;;5029431;28;20104;-72
2024/01/03 10:30:36;;;;;;;13.45;4.20;;;;;;;;;;5028935;28;20029;-71
2024/01/03 10:33:03;;;;;;;15.30;4.85;;;;;;;;;;5032123;28;20036;-71
2024/01/03 10:35:29;;;;;;;10.48;4.60;;;;;;;;;;5033214;28;20180;-72
2024/01/03 10:37:56;;;;;;;10.25;3.90;;;;;;;;;;5033462;28;20022;-71
2024/01/03 10:40:24;;;;;;;15.20;3.90;;;;;;;;;;5033187;28;20469;-72
2024/01/03 10:42:50;;;;;;;11.60;3.53;;;;;;;;;;5033146;28;20055;-72
2024/01/03 10:45:17;;;;;;;7.82;3.55;;;;;;;;;;5032896;28;20025;-72
2024/01/03 10:47:43;;;;;;;8.95;3.35;;;;;;;;;;5032964;28;20470;-72
2024/01/03 10:50:10;;;;;;;10.73;3.53;;;;;;;;;;5027097;28;20037;-72
2024/01/03 10:52:37;;;;;;;8.55;3.05;;;;;;;;;;5032575;28;20436;-71
2024/01/03 10:55:05;;;;;;;10.82;3.55;;;;;;;;;;5032757;28;20017;-72
2024/01/03 10:57:32;;;;;;;10.55;3.60;;;;;;;;;;5032328;28;20028;-72
2024/01/03 11:00:20;;;;;;;8.43;3.05;;;;;;;;;;5031439;28;20024;-71
2024/01/03 11:02:49;;;;;;;6.13;2.53;;;;;;;;;;5027052;28;20061;-72
2024/01/03 11:05:22;;;;;;;9.75;2.92;;;;;;;;;;5014388;28;20081;-72
2024/01/03 11:07:52;;;;;;;4.75;2.83;;;;;;;;;;5028292;28;20025;-71
2024/01/03 11:10:36;;;;;;;4.88;2.55;;;;;;;;;;5032324;28;20045;-72
2024/01/03 11:13:22;;;;;;;8.40;2.28;;;;;;;;;;5032443;28;20045;-73
2024/01/03 11:15:48;;;;;;;9.63;2.78;;;;;;;;;;5032140;28;20068;-71
2024/01/03 11:18:34;;;;;;;12.77;3.30;;;;;;;;;;5032670;28;20056;-71
2024/01/03 11:21:00;;;;;;;11.05;3.25;;;;;;;;;;5031990;28;20352;-73
2024/01/03 11:23:32;;;;;;;11.90;3.20;;;;;;;;;;5032135;28;20028;-70
2024/01/03 11:25:58;;;;;;;11.68;3.13;;;;;;;;;;5032324;28;20108;-70
2024/01/03 11:28:31;;;;;;;14.65;2.92;;;;;;;;;;5032201;28;20060;-69
2024/01/03 11:30:58;;;;;;;17.63;3.80;;;;;;;;;;5030418;28;20045;-71
2024/01/03 11:33:25;;;;;;;22.35;4.07;;;;;;;;;;5032043;28;20075;-70
2024/01/03 11:35:51;;;;;;;32.25;4.25;;;;;;;;;;5031960;28;20096;-69
2024/01/03 11:38:36;;;;;;;28.58;4.50;;;;;;;;;;5032182;28;20087;-69
2024/01/03 11:41:02;;;;;;;27.60;4.00;;;;;;;;;;5031673;28;20039;-69
2024/01/03 11:43:28;;;;;;;32.85;4.90;;;;;;;;;;5031613;28;20087;-71
2024/01/03 11:46:06;;;;;;;28.05;4.05;;;;;;;;;;5031494;28;20142;-68
2024/01/03 11:48:31;;;;;;;17.42;3.50;;;;;;;;;;5031290;28;20451;-70
2024/01/03 11:50:57;;;;;;;19.13;4.00;;;;;;;;;;5030331;28;20060;-69
2024/01/03 11:53:24;;;;;;;12.32;2.40;;;;;;;;;;5030958;28;20033;-69
2024/01/03 11:55:51;;;;;;;25.27;3.40;;;;;;;;;;5030891;28;20113;-69
2024/01/03 11:58:17;;;;;;;20.67;3.28;;;;;;;;;;5030890;28;20493;-69
2024/01/03 12:00:43;;;;;;;22.77;3.83;;;;;;;;;;5030650;28;20112;-72
2024/01/03 12:03:09;;;;;;;12.63;2.97;;;;;;;;;;5029628;28;20112;-71
2024/01/03 12:05:44;;;;;;;8.85;2.40;;;;;;;;;;5031559;28;20032;-71
2024/01/03 12:08:10;;;;;;;16.80;3.83;;;;;;;;;;5031662;28;20022;-69
2024/01/03 12:10:36;;;;;;;14.15;3.20;;;;;;;;;;5031289;28;20029;-71
2024/01/03 12:13:03;;;;;;;9.82;2.47;;;;;;;;;;5031295;28;20029;-71
2024/01/03 12:15:29;;;;;;;12.63;2.92;;;;;;;;;;5031516;28;20072;-69
2024/01/03 12:18:05;;;;;;;19.35;3.15;;;;;;;;;;5031542;28;20033;-72
2024/01/03 12:20:31;;;;;;;12.32;2.50;;;;;;;;;;5031442;28;20025;-71
2024/01/03 12:23:07;;;;;;;10.63;2.30;;;;;;;;;;5031228;28;20037;-71
2024/01/03 12:25:33;;;;;;;13.38;2.28;;;;;;;;;;5031399;28;20022;-73
2024/01/03 12:27:59;;;;;;;9.35;2.33;;;;;;;;;;5031538;28;20147;-71
2024/01/03 12:30:25;;;;;;;7.15;2.20;;;;;;;;;;5029554;28;20017;-72
2024/01/03 12:32:52;;;;;;;9.63;2.50;;;;;;;;;;5031062;28;20079;-73
2024/01/03 12:35:18;;;;;;;7.60;2.10;;;;;;;;;;5030946;28;20049;-71
2024/01/03 12:37:45;;;;;;;9.77;2.20;;;;;;;;;;5031061;28;20057;-71
2024/01/03 12:40:14;;;;;;;9.80;2.10;;;;;;;;;;5030752;28;20029;-72
2024/01/03 12:42:41;;;;;;;4.25;1.65;;;;;;;;;;5030637;28;20047;-71
2024/01/03 12:45:07;;;;;;;14.00;2.15;;;;;;;;;;5030709;28;20017;-73
2024/01/03 12:47:33;;;;;;;9.75;2.10;;;;;;;;;;5031039;28;20029;-72
2024/01/03 12:49:59;;;;;;;12.25;1.70;;;;;;;;;;5030626;28;20104;-72
2024/01/03 12:52:26;;;;;;;8.90;1.85;;;;;;;;;;5030524;28;20105;-71
2024/01/03 12:54:52;;;;;;;6.30;1.95;;;;;;;;;;5029882;28;20044;-70
2024/01/03 12:57:18;;;;;;;7.07;1.50;;;;;;;;;;5029004;28;20328;-70
2024/01/03 12:59:44;;;;;;;3.63;1.55;;;;;;;;;;5030162;28;20026;-70
2024/01/03 13:02:10;;;;;;;4.85;1.60;;;;;;;;;;5030400;28;20033;-69
2024/01/03 13:04:38;;;;;;;6.53;1.98;;;;;;;;;;5030262;28;20112;-70
2024/01/03 13:07:04;;;;;;;9.38;1.70;;;;;;;;;;5030450;28;20198;-70
2024/01/03 13:09:30;;;;;;;5.43;1.15;;;;;;;;;;5030288;28;20422;-69
2024/01/03 13:11:56;;;;;;;5.65;1.23;;;;;;;;;;5030248;28;20029;-69
2024/01/03 13:14:22;;;;;;;7.57;1.38;;;;;;;;;;5042429;22;20049;-67
2024/01/03 13:16:49;;;;;;;6.25;1.52;;;;;;;;;;5011768;28;20022;-67
2024/01/03 13:19:15;;;;;;;3.53;1.00;;;;;;;;;;5011774;28;20029;-68
2024/01/03 13:21:42;;;;;;;4.03;1.13;;;;;;;;;;5012143;28;20022;-67
2024/01/03 13:24:08;;;;;;;4.90;1.17;;;;;;;;;;5012006;28;20029;-67
2024/01/03 13:26:34;;;;;;;5.38;1.15;;;;;;;;;;5010677;28;20176;-66
2024/01/03 13:29:01;;;;;;;5.78;1.05;;;;;;;;;;5012020;28;20026;-68
2024/01/03 13:31:27;;;;;;;2.63;0.95;;;;;;;;;;5011828;28;20022;-67
2024/01/03 13:33:53;;;;;;;3.75;1.10;;;;;;;;;;5011817;28;20053;-69
2024/01/03 13:36:19;;;;;;;2.78;1.13;;;;;;;;;;5012092;28;20084;-68
2024/01/03 13:38:45;;;;;;;8.80;1.52;;;;;;;;;;5011923;28;20029;-68
2024/01/03 13:41:11;;;;;;;3.63;0.88;;;;;;;;;;5011551;28;20022;-68
2024/01/03 13:43:37;;;;;;;2.03;0.75;;;;;;;;;;5011535;28;20112;-68
2024/01/03 13:46:04;;;;;;;2.35;0.90;;;;;;;;;;5011733;28;20029;-68
2024/01/03 13:48:30;;;;;;;2.20;0.82;;;;;;;;;;5011584;28;20550;-68
2024/01/03 13:50:57;;;;;;;3.15;0.90;;;;;;;;;;5011292;28;20497;-68
2024/01/03 13:53:23;;;;;;;3.10;0.70;;;;;;;;;;5011629;28;20522;-69
2024/01/03 13:55:49;;;;;;;2.75;0.93;;;;;;;;;;5010259;28;20100;-70
2024/01/03 13:58:15;;;;;;;2.15;0.73;;;;;;;;;;5011319;28;20519;-69
2024/01/03 14:00:41;;;;;;;2.88;0.95;;;;;;;;;;5011241;28;20057;-68
2024/01/03 14:03:07;;;;;;;1.40;0.80;;;;;;;;;;5011365;28;20030;-68
2024/01/03 14:05:34;;;;;;;1.45;0.60;;;;;;;;;;5011659;28;20092;-68
2024/01/03 14:08:01;;;;;;;1.92;0.63;;;;;;;;;;5014493;28;20471;-68
2024/01/03 14:10:27;;;;;;;2.58;0.68;;;;;;;;;;5015281;28;20049;-68
2024/01/03 14:12:54;;;;;;;4.65;0.90;;;;;;;;;;5015160;28;20046;-68
2024/01/03 14:15:19;;;;;;;1.70;0.50;;;;;;;;;;5015526;28;20419;-68
2024/01/03 14:17:49;;;;;;;1.83;0.63;;;;;;;;;;5015377;28;20060;-69
2024/01/03 14:20:16;;;;;;;1.10;0.60;;;;;;;;;;5015312;28;20030;-68